createdAt,value
2019-02-15T15:42:44.287Z,70.15
2019-02-15T15:45:12.617Z,69.53
2019-02-15T15:47:41.134Z,70.25
2019-02-15T15:50:10.020Z,67.85
2019-02-15T15:52:38.176Z,64.90
2019-02-15T15:55:07.166Z,66.92
2019-02-15T15:57:35.564Z,64.45
2019-02-15T16:00:03.960Z,65.05
2019-02-15T16:02:32.434Z,65.78
2019-02-15T16:05:00.597Z,67.65
2019-02-15T16:07:28.864Z,65.03
2019-02-15T16:09:57.133Z,65.57
2019-02-15T16:12:25.983Z,70.95
2019-02-15T16:14:54.506Z,68.12
2019-02-15T16:17:27.859Z,65.40
2019-02-15T16:19:56.409Z,69.17
2019-02-15T16:22:26.056Z,66.60
2019-02-15T16:24:54.604Z,72.80
2019-02-15T16:27:22.937Z,68.62
2019-02-15T16:29:51.532Z,66.55
2019-02-15T16:32:19.826Z,65.83
2019-02-15T16:34:50.244Z,68.17
2019-02-15T16:37:18.645Z,68.70
2019-02-15T16:39:46.801Z,70.12
2019-02-15T16:42:14.989Z,69.67
2019-02-15T16:44:43.223Z,70.52
2019-02-15T16:47:11.447Z,70.08
2019-02-15T16:49:39.638Z,68.62
2019-02-15T16:52:08.149Z,70.87
2019-02-15T16:54:36.665Z,74.30
2019-02-15T16:57:04.961Z,72.37
2019-02-15T16:59:33.857Z,76.47
2019-02-15T17:02:02.951Z,75.87
2019-02-15T17:04:31.326Z,78.65
2019-02-15T17:06:59.579Z,78.28
2019-02-15T17:09:27.862Z,76.70
2019-02-15T17:11:56.778Z,78.40
2019-02-15T17:14:25.217Z,76.35
2019-02-15T17:16:53.482Z,79.07
2019-02-15T17:19:21.803Z,81.53
2019-02-15T17:21:50.191Z,80.92
2019-02-15T17:24:18.473Z,76.75
2019-02-15T17:26:46.714Z,78.90
2019-02-15T17:29:15.008Z,79.72
2019-02-15T17:31:44.010Z,77.10
2019-02-15T17:34:12.635Z,76.30
2019-02-15T17:36:40.859Z,75.37
2019-02-15T17:39:09.573Z,72.50
2019-02-15T17:41:37.814Z,71.60
2019-02-15T17:44:06.084Z,69.77
2019-02-15T17:46:35.001Z,70.12
2019-02-15T17:49:03.443Z,65.92
2019-02-15T17:51:31.775Z,67.45
2019-02-15T17:54:00.043Z,63.33
2019-02-15T17:56:28.385Z,61.53
2019-02-15T17:58:56.623Z,62.08
2019-02-15T18:01:24.912Z,59.15
2019-02-15T18:03:53.225Z,54.65
2019-02-15T18:06:21.494Z,57.43
2019-02-15T18:08:49.742Z,55.52
2019-02-15T18:11:17.877Z,59.75
2019-02-15T18:13:46.171Z,57.45
2019-02-15T18:16:14.473Z,56.70
2019-02-15T18:18:42.788Z,59.42
2019-02-15T18:21:11.055Z,58.25
2019-02-15T18:23:39.254Z,61.92
2019-02-15T18:26:07.542Z,59.50
2019-02-15T18:28:35.815Z,59.75
2019-02-15T18:31:03.961Z,62.70
2019-02-15T18:33:32.180Z,65.42
2019-02-15T18:36:00.356Z,70.22
2019-02-15T18:38:28.544Z,67.72
2019-02-15T18:40:56.766Z,67.90
2019-02-15T18:43:25.062Z,68.45
2019-02-15T18:45:53.256Z,67.17
2019-02-15T18:48:21.631Z,69.12
2019-02-15T18:50:49.945Z,67.27
2019-02-15T18:53:18.188Z,73.95
2019-02-15T18:55:46.522Z,65.85
2019-02-15T18:58:14.888Z,64.70
2019-02-15T19:00:43.110Z,67.32
2019-02-15T19:03:11.402Z,65.97
2019-02-15T19:05:39.565Z,67.35
2019-02-15T19:08:07.954Z,69.20
2019-02-15T19:10:36.211Z,68.20
2019-02-15T19:13:04.636Z,66.42
2019-02-15T19:15:32.792Z,67.78
2019-02-15T19:18:01.427Z,69.00
2019-02-15T19:20:29.676Z,68.20
2019-02-15T19:22:58.009Z,63.55
2019-02-15T19:27:57.567Z,72.05
2019-02-15T19:30:26.762Z,70.35
2019-02-15T19:32:54.967Z,70.80
2019-02-15T19:35:23.478Z,69.22
2019-02-15T19:37:51.645Z,67.58
2019-02-15T19:40:19.850Z,68.75
2019-02-15T19:42:50.562Z,65.35
2019-02-15T19:45:19.201Z,64.70
2019-02-15T19:47:47.428Z,64.80
2019-02-15T19:50:16.606Z,67.25
2019-02-15T19:52:46.488Z,67.53
2019-02-15T19:55:14.679Z,67.97
2019-02-15T19:57:42.861Z,71.67
2019-02-15T20:00:14.631Z,68.45
2019-02-15T20:02:42.836Z,69.00
2019-02-15T20:05:11.045Z,66.92
2019-02-15T20:07:39.899Z,65.52
2019-02-15T20:10:12.090Z,63.20
2019-02-15T20:12:40.314Z,64.50
2019-02-15T20:15:10.842Z,61.02
2019-02-15T20:17:39.827Z,63.48
2019-02-15T20:20:10.249Z,61.77
2019-02-15T20:22:38.722Z,62.65
2019-02-15T20:25:08.612Z,65.67
2019-02-15T20:27:36.819Z,66.70
2019-02-15T20:30:08.929Z,67.47
2019-02-15T20:32:37.089Z,66.60
2019-02-15T20:35:06.703Z,60.85
2019-02-15T20:37:34.988Z,60.65
2019-02-15T20:40:03.684Z,61.00
2019-02-15T20:42:32.831Z,66.00
2019-02-15T20:45:01.324Z,64.07
2019-02-15T20:47:29.567Z,61.65
2019-02-15T20:49:58.399Z,56.50
2019-02-15T20:52:26.608Z,54.75
2019-02-15T20:54:55.314Z,57.75
2019-02-15T20:57:23.496Z,57.60
2019-02-15T20:59:51.733Z,62.03
2019-02-15T21:02:20.444Z,63.00
2019-02-15T21:04:48.886Z,62.85
2019-02-15T21:07:17.087Z,64.10
2019-02-15T21:09:45.316Z,64.32
2019-02-15T21:12:13.455Z,66.12
2019-02-15T21:14:41.730Z,67.72
2019-02-15T21:17:10.155Z,67.35
2019-02-15T21:19:38.402Z,68.85
2019-02-15T21:22:06.566Z,71.35
2019-02-15T21:24:34.754Z,69.03
2019-02-15T21:27:02.950Z,67.80
2019-02-15T21:29:31.182Z,65.62
2019-02-15T21:31:59.334Z,59.38
2019-02-15T21:34:27.520Z,63.55
2019-02-15T21:36:55.849Z,64.70
2019-02-15T21:39:24.102Z,66.47
2019-02-15T21:41:52.648Z,64.95
2019-02-15T21:44:20.977Z,61.68
2019-02-15T21:46:49.347Z,66.62
2019-02-15T21:49:17.979Z,64.72
2019-02-15T21:51:46.592Z,63.48
2019-02-15T21:54:15.155Z,66.02
2019-02-15T21:56:43.586Z,66.25
2019-02-15T21:59:11.840Z,66.47
2019-02-15T22:01:40.312Z,66.85
2019-02-15T22:04:08.649Z,67.97
2019-02-15T22:06:37.019Z,70.97
2019-02-15T22:09:06.193Z,67.30
2019-02-15T22:11:34.327Z,65.55
2019-02-15T22:14:02.569Z,61.30
2019-02-15T22:16:30.841Z,64.15
2019-02-15T22:18:59.310Z,68.07
2019-02-15T22:21:27.594Z,65.20
2019-02-15T22:23:56.330Z,65.05
2019-02-15T22:26:24.733Z,64.00
2019-02-15T22:28:53.091Z,63.90
2019-02-15T22:31:21.285Z,65.22
2019-02-15T22:33:49.497Z,63.20
2019-02-15T22:36:17.660Z,58.30
2019-02-15T22:38:45.874Z,60.33
2019-02-15T22:41:16.170Z,68.97
2019-02-15T22:43:45.323Z,65.87
2019-02-15T22:46:13.495Z,70.65
2019-02-15T22:48:41.633Z,71.75
2019-02-15T22:51:09.908Z,70.87
2019-02-15T22:53:38.187Z,72.22
2019-02-15T22:56:06.532Z,69.87
2019-02-15T22:58:34.694Z,73.02
2019-02-15T23:01:13.723Z,71.53
2019-02-15T23:03:41.909Z,68.17
2019-02-15T23:06:10.109Z,69.47
2019-02-15T23:08:38.258Z,69.50
2019-02-15T23:11:06.864Z,69.25
2019-02-15T23:13:35.356Z,68.40
2019-02-15T23:16:03.559Z,67.72
2019-02-15T23:18:32.070Z,71.02
2019-02-15T23:21:01.881Z,72.85
2019-02-15T23:23:30.469Z,74.42
2019-02-15T23:25:58.983Z,75.30
2019-02-15T23:28:27.474Z,74.67
2019-02-15T23:30:55.795Z,71.57
2019-02-15T23:33:24.218Z,72.37
2019-02-15T23:35:52.372Z,65.40
2019-02-15T23:38:20.567Z,73.12
2019-02-15T23:40:49.085Z,75.80
2019-02-15T23:43:17.459Z,76.62
2019-02-15T23:45:45.641Z,72.27
2019-02-15T23:48:14.098Z,78.45
2019-02-15T23:50:42.224Z,73.37
2019-02-15T23:53:10.426Z,74.03
2019-02-15T23:55:38.701Z,74.42
2019-02-15T23:58:06.989Z,72.95
